Time;durP1;ratioP1;P1;durP2;ratioP2;P2;SDS_P1;SDS_P2;PMS_P1;PMS_P2;Temp;Humidity;BMP_temperature;BMP_pressure;BME280_temperature;BME280_humidity;BME280_pressure;Samples;Min_cycle;Max_cycle;Signal;HPM_P1;HPM_P2
2023/03/05 00:02:12;;;;;;;1.05;0.60;;;;;;;0.51;62.36;96888.50;5034400;28;20072;-52
2023/03/05 00:04:37;;;;;;;1.30;0.70;;;;;;;0.51;62.45;96888.50;5034341;28;20029;-50
2023/03/05 00:07:04;;;;;;;1.33;0.75;;;;;;;0.50;62.56;96896.53;5038714;28;20040;-53
2023/03/05 00:09:30;;;;;;;1.88;0.73;;;;;;;0.43;62.14;96880.44;5054328;28;20033;-55
2023/03/05 00:11:55;;;;;;;2.38;0.73;;;;;;;0.40;62.83;96884.16;5043010;28;20436;-54
2023/03/05 00:14:21;;;;;;;1.42;0.60;;;;;;;0.50;62.52;96894.72;5034243;28;20040;-53
2023/03/05 00:16:46;;;;;;;1.17;0.70;;;;;;;0.50;62.23;96889.47;5036222;28;20065;-54
2023/03/05 00:19:12;;;;;;;1.17;0.60;;;;;;;0.46;62.21;96890.69;5054417;28;20115;-51
2023/03/05 00:21:40;;;;;;;1.25;0.70;;;;;;;0.52;61.93;96891.97;5054083;28;20029;-56
2023/03/05 00:24:10;;;;;;;2.92;0.88;;;;;;;0.47;62.28;96895.00;5043316;28;20030;-56
2023/03/05 00:26:38;;;;;;;3.58;0.93;;;;;;;0.39;62.41;96879.03;5034357;28;20094;-55
2023/03/05 00:29:05;;;;;;;1.25;0.80;;;;;;;0.43;62.55;96893.59;5034250;28;20038;-55
2023/03/05 00:31:33;;;;;;;1.33;0.70;;;;;;;0.45;62.38;96896.94;5033631;28;20033;-50
2023/03/05 00:34:02;;;;;;;1.88;0.93;;;;;;;0.40;62.67;96891.22;5033809;28;20033;-56
2023/03/05 00:36:28;;;;;;;3.53;0.80;;;;;;;0.35;62.31;96891.63;5048392;28;20171;-56
2023/03/05 00:38:54;;;;;;;0.90;0.60;;;;;;;0.36;62.48;96895.06;5034409;28;20049;-57
2023/03/05 00:41:20;;;;;;;1.80;0.75;;;;;;;0.33;62.65;96893.56;5033951;28;20048;-51
2023/03/05 00:43:46;;;;;;;1.50;0.65;;;;;;;0.34;62.53;96897.00;5033925;28;20543;-54
2023/03/05 00:46:12;;;;;;;2.83;0.75;;;;;;;0.29;63.04;96889.53;5033508;28;20037;-54
2023/03/05 00:48:37;;;;;;;2.72;0.90;;;;;;;0.30;62.84;96885.94;5052205;28;20033;-53
2023/03/05 00:51:03;;;;;;;2.97;0.80;;;;;;;0.29;62.18;96881.63;5053413;28;20108;-54
2023/03/05 00:53:29;;;;;;;1.05;0.85;;;;;;;0.30;62.56;96883.28;5053321;28;20025;-55
2023/03/05 00:55:54;;;;;;;1.55;0.80;;;;;;;0.24;62.18;96884.66;5053524;28;20218;-51
2023/03/05 00:58:20;;;;;;;0.90;0.70;;;;;;;0.29;61.86;96894.78;5035744;28;20084;-57
2023/03/05 01:00:49;;;;;;;3.05;0.73;;;;;;;0.26;62.12;96903.75;5048920;28;20037;-51
2023/03/05 01:03:15;;;;;;;2.17;0.80;;;;;;;0.23;62.01;96893.50;5053437;28;20032;-51
2023/03/05 01:05:41;;;;;;;1.58;0.88;;;;;;;0.23;62.24;96897.91;5053179;28;20477;-50
2023/03/05 01:08:07;;;;;;;1.38;0.70;;;;;;;0.21;61.95;96894.59;5036271;28;20608;-51
2023/03/05 01:10:32;;;;;;;1.75;0.77;;;;;;;0.17;62.02;96901.09;5033496;28;20037;-51
2023/03/05 01:12:58;;;;;;;3.15;0.80;;;;;;;0.14;62.29;96895.13;5032887;28;20029;-53
2023/03/05 01:15:24;;;;;;;2.67;0.80;;;;;;;0.09;61.98;96902.56;5033140;28;20037;-59
2023/03/05 01:17:49;;;;;;;1.55;0.80;;;;;;;-0.10;61.97;96869.13;5045446;28;20424;-57
2023/03/05 01:20:18;;;;;;;3.58;0.63;;;;;;;0.07;62.25;96901.03;5052923;28;20052;-57
2023/03/05 01:22:44;;;;;;;3.28;0.98;;;;;;;-0.01;62.08;96896.41;5052645;28;20028;-56
2023/03/05 01:25:11;;;;;;;1.05;0.73;;;;;;;0.02;62.53;96896.19;5034863;28;20059;-54
2023/03/05 01:27:38;;;;;;;1.05;0.70;;;;;;;-0.01;62.13;96892.00;5043918;28;20033;-55
2023/03/05 01:30:06;;;;;;;1.73;0.70;;;;;;;-0.01;61.94;96906.94;5052519;28;20035;-55
2023/03/05 01:32:33;;;;;;;1.08;0.70;;;;;;;-0.07;61.71;96891.69;5052004;28;20037;-55
2023/03/05 01:35:01;;;;;;;1.17;0.70;;;;;;;-0.11;61.76;96885.03;5053201;28;20036;-55
2023/03/05 01:37:28;;;;;;;2.13;0.68;;;;;;;-0.09;62.11;96889.19;5042299;28;20025;-53
2023/03/05 01:39:54;;;;;;;1.40;0.70;;;;;;;-0.15;62.37;96893.16;5032666;28;20052;-53
2023/03/05 01:42:20;;;;;;;1.02;0.60;;;;;;;-0.32;62.05;96864.81;5033463;28;20081;-53
2023/03/05 01:45:06;;;;;;;1.08;0.70;;;;;;;-0.13;62.42;96892.19;5032806;28;20115;-53
2023/03/05 01:47:31;;;;;;;1.77;0.68;;;;;;;-0.27;62.19;96891.56;5045297;28;20461;-53
2023/03/05 01:49:58;;;;;;;1.20;0.80;;;;;;;-0.26;62.01;96901.09;5052160;28;20124;-53
2023/03/05 01:52:26;;;;;;;1.30;0.70;;;;;;;-0.30;61.99;96895.28;5053001;28;20033;-55
2023/03/05 01:55:00;;;;;;;2.40;0.60;;;;;;;-0.29;61.71;96898.75;5051989;28;20040;-51
2023/03/05 01:57:36;;;;;;;0.98;0.60;;;;;;;-0.31;62.12;96893.63;5039269;28;20120;-62
2023/03/05 02:00:10;;;;;;;1.00;0.65;;;;;;;-0.44;62.56;96887.72;5051906;28;20041;-52
2023/03/05 02:02:36;;;;;;;1.30;0.70;;;;;;;-0.43;62.21;96899.88;5052743;28;20041;-52
2023/03/05 02:05:09;;;;;;;2.30;0.73;;;;;;;-0.42;62.24;96887.59;5052395;28;20031;-54
2023/03/05 02:07:36;;;;;;;0.80;0.60;;;;;;;-0.45;62.42;96889.50;5052263;28;20044;-53
2023/03/05 02:10:20;;;;;;;1.95;0.60;;;;;;;-0.42;62.11;96887.59;5032507;28;20039;-53
2023/03/05 02:12:48;;;;;;;4.18;0.70;;;;;;;-0.51;62.41;96895.25;5032730;28;20041;-56
2023/03/05 02:15:33;;;;;;;1.40;0.80;;;;;;;-0.57;62.56;96876.56;5032075;28;20052;-52
2023/03/05 02:18:02;;;;;;;2.08;0.70;;;;;;;-0.56;62.34;96902.69;5033089;28;20025;-55
2023/03/05 02:20:30;;;;;;;2.35;1.00;;;;;;;-0.55;62.37;96888.59;5049618;28;20036;-54
2023/03/05 02:22:56;;;;;;;1.98;0.73;;;;;;;-0.49;62.89;96898.59;5052500;28;20028;-53
2023/03/05 02:25:27;;;;;;;2.83;0.60;;;;;;;-0.45;62.21;96896.56;5052051;28;20098;-55
2023/03/05 02:28:04;;;;;;;3.05;0.75;;;;;;;-0.41;61.91;96900.59;5050107;28;20052;-57
2023/03/05 02:30:30;;;;;;;0.75;0.47;;;;;;;-0.54;62.42;96885.00;5032497;28;20029;-54
2023/03/05 02:32:56;;;;;;;2.03;0.60;;;;;;;-0.55;62.48;96893.84;5032641;28;20041;-59
2023/03/05 02:35:22;;;;;;;3.10;0.80;;;;;;;-0.61;62.23;96889.09;5032141;28;20084;-55
2023/03/05 02:37:48;;;;;;;2.10;0.70;;;;;;;-0.89;62.91;96855.41;5031961;28;20033;-56
2023/03/05 02:40:14;;;;;;;1.00;0.80;;;;;;;-0.69;62.66;96891.53;5031741;28;20045;-56
2023/03/05 02:42:40;;;;;;;2.10;0.90;;;;;;;-0.68;62.52;96893.22;5032913;28;20036;-56
2023/03/05 02:45:06;;;;;;;3.00;0.70;;;;;;;-0.71;62.90;96885.59;5032070;28;20045;-58
2023/03/05 02:47:32;;;;;;;2.20;0.70;;;;;;;-0.84;63.32;96873.44;5031785;28;20168;-56
2023/03/05 02:49:58;;;;;;;2.13;0.60;;;;;;;-0.85;63.18;96882.28;5049485;28;20483;-60
2023/03/05 02:52:24;;;;;;;2.20;0.80;;;;;;;-0.91;63.26;96880.97;5047634;28;20064;-50
2023/03/05 02:54:50;;;;;;;1.80;0.68;;;;;;;-0.91;63.28;96883.59;5031412;28;20117;-52
2023/03/05 02:57:16;;;;;;;3.03;0.80;;;;;;;-1.10;63.83;96854.53;5032081;28;20112;-57
2023/03/05 02:59:42;;;;;;;2.22;0.85;;;;;;;-0.97;63.70;96870.13;5046668;28;20108;-54
2023/03/05 03:02:07;;;;;;;2.30;0.80;;;;;;;-1.00;63.74;96871.22;5053330;28;20160;-55
2023/03/05 03:04:33;;;;;;;1.40;0.88;;;;;;;-0.93;63.80;96874.19;5055730;28;20392;-54
2023/03/05 03:06:58;;;;;;;1.75;0.80;;;;;;;-0.93;63.74;96876.81;5055764;28;20386;-52
2023/03/05 03:09:25;;;;;;;1.08;0.63;;;;;;;-1.03;64.10;96859.16;5042575;28;20051;-54
2023/03/05 03:11:51;;;;;;;1.80;0.82;;;;;;;-1.01;64.79;96878.25;5035710;28;20121;-50
2023/03/05 03:14:16;;;;;;;2.88;0.75;;;;;;;-1.02;64.51;96862.63;5035764;28;20108;-54
2023/03/05 03:16:42;;;;;;;2.20;0.77;;;;;;;-0.99;64.53;96867.63;5040752;28;20033;-53
2023/03/05 03:19:07;;;;;;;1.63;0.98;;;;;;;-0.88;64.49;96866.75;5045254;28;20034;-56
2023/03/05 03:21:32;;;;;;;3.67;1.10;;;;;;;-1.03;64.45;96850.47;5035808;28;20025;-56
2023/03/05 03:23:58;;;;;;;5.28;1.10;;;;;;;-0.94;64.77;96864.66;5035376;28;20466;-58
2023/03/05 03:26:23;;;;;;;2.75;1.10;;;;;;;-0.94;64.96;96872.53;5034178;28;20100;-55
2023/03/05 03:28:49;;;;;;;1.58;1.10;;;;;;;-0.98;65.48;96871.94;5041363;28;20116;-52
2023/03/05 03:31:15;;;;;;;3.85;1.33;;;;;;;-0.96;65.45;96864.75;5055329;28;20037;-54
2023/03/05 03:33:40;;;;;;;4.28;1.27;;;;;;;-0.99;65.51;96865.00;5054693;28;20029;-54
2023/03/05 03:36:06;;;;;;;1.83;0.90;;;;;;;-0.98;65.60;96871.09;5055124;28;20439;-53
2023/03/05 03:38:32;;;;;;;3.85;1.30;;;;;;;-1.14;66.42;96837.34;5053498;28;20122;-58
2023/03/05 03:40:58;;;;;;;3.97;1.27;;;;;;;-0.94;65.95;96872.53;5055351;28;20049;-54
2023/03/05 03:43:23;;;;;;;3.20;1.45;;;;;;;-0.96;65.88;96871.81;5053464;28;20090;-57
2023/03/05 03:45:49;;;;;;;3.00;0.93;;;;;;;-0.95;65.89;96876.13;5054917;28;20036;-54
2023/03/05 03:48:14;;;;;;;2.42;0.75;;;;;;;-0.94;66.07;96867.28;5049289;28;20117;-58
2023/03/05 03:50:41;;;;;;;2.53;1.10;;;;;;;-1.06;66.58;96850.72;5035077;28;20034;-54
2023/03/05 03:53:07;;;;;;;2.72;1.00;;;;;;;-0.97;66.36;96864.88;5034512;28;20108;-51
2023/03/05 03:55:33;;;;;;;2.17;0.93;;;;;;;-0.96;66.38;96861.31;5034677;28;20033;-58
2023/03/05 03:57:59;;;;;;;2.15;0.80;;;;;;;-0.97;66.36;96862.25;5038175;28;20061;-57
2023/03/05 04:00:25;;;;;;;3.30;0.85;;;;;;;-0.97;66.11;96867.50;5054801;28;20053;-56
2023/03/05 04:02:51;;;;;;;2.60;0.80;;;;;;;-0.98;66.16;96871.94;5049891;28;20029;-53
2023/03/05 04:05:16;;;;;;;2.10;0.85;;;;;;;-0.98;66.07;96863.19;5034328;28;20037;-52
2023/03/05 04:07:42;;;;;;;5.15;1.10;;;;;;;-0.93;65.67;96875.00;5035224;28;20033;-52
2023/03/05 04:10:08;;;;;;;3.60;1.02;;;;;;;-0.96;65.63;96870.00;5054520;28;20392;-50
2023/03/05 04:12:33;;;;;;;4.80;1.08;;;;;;;-0.94;65.99;96854.16;5053483;28;20029;-61
2023/03/05 04:14:59;;;;;;;2.53;1.10;;;;;;;-0.92;65.54;96865.34;5053880;28;20104;-51
2023/03/05 04:17:24;;;;;;;2.58;1.10;;;;;;;-0.87;66.02;96863.19;5054769;28;20029;-55
2023/03/05 04:19:49;;;;;;;2.25;1.08;;;;;;;-0.85;65.19;96874.41;5035422;28;20123;-51
2023/03/05 04:22:16;;;;;;;2.38;1.05;;;;;;;-0.79;65.28;96866.00;5034218;28;20038;-50
2023/03/05 04:24:42;;;;;;;4.82;1.10;;;;;;;-0.80;65.47;96866.97;5034133;28;20033;-55
2023/03/05 04:27:08;;;;;;;2.28;1.10;;;;;;;-0.77;65.21;96865.88;5040132;28;20075;-54
2023/03/05 04:29:34;;;;;;;1.63;1.00;;;;;;;-0.84;65.26;96852.41;5038393;28;20037;-64
2023/03/05 04:32:00;;;;;;;1.50;0.88;;;;;;;-0.73;65.03;96868.13;5033113;28;20034;-55
2023/03/05 04:34:25;;;;;;;2.08;1.00;;;;;;;-0.67;64.89;96866.78;5033857;28;20431;-54
2023/03/05 04:36:51;;;;;;;3.45;0.90;;;;;;;-0.63;65.03;96864.75;5033890;28;20095;-53
2023/03/05 04:39:19;;;;;;;1.95;1.10;;;;;;;-0.55;64.58;96867.56;5045520;28;20045;-55
2023/03/05 04:41:45;;;;;;;2.42;0.85;;;;;;;-0.62;64.62;96866.41;5053561;28;20106;-56
2023/03/05 04:44:11;;;;;;;3.63;0.98;;;;;;;-0.58;64.43;96867.81;5053825;28;20029;-52
2023/03/05 04:46:36;;;;;;;1.33;0.70;;;;;;;-0.57;64.30;96868.69;5053854;28;20021;-53
2023/03/05 04:49:02;;;;;;;2.55;0.90;;;;;;;-0.57;64.08;96864.25;5039327;28;20040;-52
2023/03/05 04:51:27;;;;;;;2.28;0.95;;;;;;;-0.78;64.10;96838.78;5041039;28;20037;-52
2023/03/05 04:53:53;;;;;;;3.22;1.00;;;;;;;-0.48;63.74;96875.78;5053735;28;20119;-51
2023/03/05 04:56:19;;;;;;;5.22;1.23;;;;;;;-0.50;63.89;96881.16;5053410;28;20037;-54
2023/03/05 04:58:44;;;;;;;2.42;0.88;;;;;;;-0.51;63.38;96879.50;5041611;28;20033;-53
2023/03/05 05:01:10;;;;;;;2.25;0.77;;;;;;;-0.48;63.33;96883.66;5033530;28;20033;-54
2023/03/05 05:03:35;;;;;;;1.58;0.82;;;;;;;-0.50;63.36;96881.16;5032901;28;20021;-52
2023/03/05 05:06:01;;;;;;;2.45;0.95;;;;;;;-0.53;63.55;96873.53;5033368;28;20036;-51
2023/03/05 05:08:27;;;;;;;1.65;0.70;;;;;;;-0.47;63.16;96880.06;5042006;28;20037;-54
2023/03/05 05:11:00;;;;;;;4.90;0.98;;;;;;;-0.64;63.42;96857.84;5052942;28;20033;-53
2023/03/05 05:13:26;;;;;;;1.73;0.80;;;;;;;-0.44;63.44;96885.94;5052668;28;20033;-52
2023/03/05 05:15:52;;;;;;;2.45;0.63;;;;;;;-0.39;63.31;96888.16;5043313;28;20037;-52
2023/03/05 05:18:18;;;;;;;5.82;1.38;;;;;;;-0.39;62.89;96882.06;5040025;28;20032;-52
2023/03/05 05:20:43;;;;;;;3.53;0.90;;;;;;;-0.28;62.81;96876.75;5052643;28;20052;-52
2023/03/05 05:23:09;;;;;;;1.95;0.75;;;;;;;-0.11;62.38;96890.28;5053339;28;20025;-54
2023/03/05 05:25:34;;;;;;;1.27;0.88;;;;;;;-0.01;62.04;96885.91;5053314;28;20040;-55
2023/03/05 05:27:59;;;;;;;1.88;0.90;;;;;;;0.02;62.03;96882.19;5047987;28;20082;-55
2023/03/05 05:30:25;;;;;;;1.60;0.70;;;;;;;0.07;61.37;96888.72;5032940;28;20171;-53
2023/03/05 05:32:50;;;;;;;2.35;0.63;;;;;;;0.14;62.24;96889.84;5033286;28;20464;-56
2023/03/05 05:35:16;;;;;;;1.60;0.85;;;;;;;0.12;62.15;96894.41;5033120;28;20362;-57
2023/03/05 05:37:41;;;;;;;1.27;0.70;;;;;;;0.14;62.54;96894.31;5032961;28;20034;-53
2023/03/05 05:40:08;;;;;;;2.00;0.80;;;;;;;0.16;62.34;96888.91;5052679;28;20045;-57
2023/03/05 05:42:34;;;;;;;0.77;0.50;;;;;;;0.19;62.81;96899.16;5053352;28;20140;-54
2023/03/05 05:45:01;;;;;;;1.77;0.82;;;;;;;0.07;62.45;96877.34;5052197;28;20104;-55
2023/03/05 05:47:29;;;;;;;3.65;1.00;;;;;;;0.19;62.77;96901.78;5048674;28;20116;-58
2023/03/05 05:49:55;;;;;;;4.45;1.13;;;;;;;-0.10;62.85;96834.94;5031489;28;20117;-57
2023/03/05 05:52:21;;;;;;;5.70;0.52;;;;;;;0.33;62.74;96897.97;5033237;28;20025;-58
2023/03/05 05:54:47;;;;;;;1.40;0.65;;;;;;;0.34;62.85;96908.38;5032100;28;20025;-56
2023/03/05 05:57:13;;;;;;;2.65;0.70;;;;;;;0.37;62.57;96908.09;5033175;28;20419;-55
2023/03/05 05:59:39;;;;;;;5.60;1.00;;;;;;;0.41;62.85;96903.44;5052521;28;20033;-53
2023/03/05 06:02:06;;;;;;;2.58;0.82;;;;;;;0.36;62.97;96903.81;5048993;28;20040;-54
2023/03/05 06:04:32;;;;;;;1.73;0.90;;;;;;;0.37;63.04;96904.66;5032826;28;20029;-58
2023/03/05 06:06:58;;;;;;;2.58;0.70;;;;;;;0.34;63.03;96897.84;5032523;28;20042;-47
2023/03/05 06:09:24;;;;;;;3.97;1.10;;;;;;;0.41;63.61;96911.31;5050922;28;20106;-50
2023/03/05 06:11:49;;;;;;;1.38;0.60;;;;;;;0.50;63.56;96910.53;5052507;28;20032;-50
2023/03/05 06:14:15;;;;;;;3.70;1.00;;;;;;;0.57;63.46;96905.56;5052759;28;20371;-51
2023/03/05 06:16:40;;;;;;;3.92;1.00;;;;;;;0.64;63.22;96917.22;5052240;28;20444;-57
2023/03/05 06:19:08;;;;;;;3.60;0.98;;;;;;;0.72;63.08;96921.81;5034682;28;20349;-52
2023/03/05 06:21:33;;;;;;;1.52;0.70;;;;;;;0.75;63.01;96911.03;5031611;28;20412;-51
2023/03/05 06:23:59;;;;;;;2.08;1.10;;;;;;;0.73;62.72;96904.25;5032558;28;20067;-51
2023/03/05 06:26:25;;;;;;;3.00;0.90;;;;;;;0.81;62.26;96914.94;5031901;28;20436;-48
2023/03/05 06:28:51;;;;;;;3.25;0.93;;;;;;;0.86;62.39;96920.63;5045413;28;20620;-48
2023/03/05 06:31:20;;;;;;;6.78;0.90;;;;;;;0.85;62.19;96916.31;5051870;28;20040;-49
2023/03/05 06:33:46;;;;;;;3.22;0.90;;;;;;;0.85;62.04;96924.22;5051662;28;20029;-47
2023/03/05 06:36:15;;;;;;;5.32;1.00;;;;;;;0.90;61.93;96923.81;5052299;28;20033;-51
2023/03/05 06:38:41;;;;;;;2.42;0.80;;;;;;;0.92;62.07;96927.16;5043319;28;20107;-52
2023/03/05 06:41:10;;;;;;;1.15;0.75;;;;;;;0.95;61.58;96919.78;5036552;28;20048;-47
2023/03/05 06:43:38;;;;;;;2.72;0.80;;;;;;;0.96;60.86;96918.81;5035933;28;20026;-51
2023/03/05 06:46:10;;;;;;;8.85;1.13;;;;;;;0.98;61.07;96930.09;5035591;28;20183;-54
2023/03/05 06:48:36;;;;;;;4.40;0.80;;;;;;;0.76;61.30;96899.50;5050838;28;20439;-54
2023/03/05 06:51:02;;;;;;;2.15;0.75;;;;;;;0.88;61.90;96929.22;5043779;28;20037;-53
2023/03/05 06:53:27;;;;;;;1.80;0.90;;;;;;;0.89;61.59;96932.69;5035914;28;20119;-53
2023/03/05 06:55:54;;;;;;;2.50;1.10;;;;;;;0.90;61.45;96932.53;5035341;28;20037;-53
2023/03/05 06:58:20;;;;;;;3.85;1.00;;;;;;;0.87;61.43;96932.00;5047974;28;20039;-53
2023/03/05 07:00:46;;;;;;;3.67;1.52;;;;;;;0.93;61.68;96932.28;5055033;28;20112;-54
2023/03/05 07:03:12;;;;;;;2.70;1.20;;;;;;;0.97;61.28;96938.13;5056369;28;20167;-52
2023/03/05 07:05:41;;;;;;;2.33;1.25;;;;;;;1.01;61.25;96944.78;5054624;28;20435;-53
2023/03/05 07:08:07;;;;;;;5.45;1.50;;;;;;;1.00;61.56;96946.59;5044777;28;20111;-52
2023/03/05 07:10:40;;;;;;;4.40;1.48;;;;;;;1.04;61.03;96939.22;5034494;28;20440;-52
2023/03/05 07:13:07;;;;;;;3.65;1.30;;;;;;;0.83;61.33;96924.34;5034616;28;20030;-53
2023/03/05 07:15:32;;;;;;;2.38;1.20;;;;;;;0.78;61.33;96918.66;5050465;28;20060;-53
2023/03/05 07:17:58;;;;;;;6.05;1.45;;;;;;;1.00;61.30;96959.75;5045452;28;20464;-54
2023/03/05 07:20:24;;;;;;;3.65;1.27;;;;;;;1.03;60.84;96958.66;5034649;28;20368;-49
2023/03/05 07:22:49;;;;;;;2.60;1.40;;;;;;;1.06;61.21;96968.09;5035302;28;20029;-49
2023/03/05 07:25:20;;;;;;;2.38;1.38;;;;;;;1.07;61.41;96964.50;5034891;28;20120;-51
2023/03/05 07:27:46;;;;;;;2.78;1.27;;;;;;;1.06;61.20;96968.09;5042124;28;20047;-49
2023/03/05 07:30:12;;;;;;;3.42;1.70;;;;;;;1.06;60.77;96979.44;5054430;28;20043;-49
2023/03/05 07:32:37;;;;;;;6.38;1.58;;;;;;;0.99;61.16;96973.91;5054633;28;20033;-53
2023/03/05 07:35:03;;;;;;;8.82;1.77;;;;;;;0.98;60.96;96968.75;5053894;28;20348;-50
2023/03/05 07:37:29;;;;;;;3.22;1.90;;;;;;;0.94;61.81;96984.00;5049773;28;20033;-51
2023/03/05 07:39:54;;;;;;;3.92;1.60;;;;;;;0.98;62.63;96988.06;5035369;28;20107;-51
2023/03/05 07:42:20;;;;;;;2.85;2.00;;;;;;;1.13;61.85;96991.16;5036057;28;20048;-50
2023/03/05 07:44:45;;;;;;;8.80;2.00;;;;;;;0.94;61.75;96949.75;5034591;28;20029;-54
2023/03/05 07:47:10;;;;;;;4.18;2.35;;;;;;;1.32;61.45;96993.94;5035825;28;20029;-51
2023/03/05 07:49:38;;;;;;;7.50;2.38;;;;;;;1.36;61.42;97000.63;5038683;28;20471;-54
2023/03/05 07:52:04;;;;;;;3.35;2.25;;;;;;;1.38;61.53;97004.78;5054687;28;20067;-50
2023/03/05 07:54:30;;;;;;;4.90;2.30;;;;;;;1.16;61.35;96963.66;5054354;28;20025;-52
2023/03/05 07:56:55;;;;;;;2.67;2.35;;;;;;;1.45;61.48;97004.25;5051489;28;20418;-56
2023/03/05 07:59:21;;;;;;;10.70;3.03;;;;;;;1.55;61.75;97013.84;5034973;28;20425;-54
2023/03/05 08:01:46;;;;;;;4.45;2.70;;;;;;;1.69;61.26;97006.50;5034409;28;20026;-55
2023/03/05 08:04:12;;;;;;;8.57;3.47;;;;;;;1.86;60.45;97013.72;5034489;28;20026;-50
2023/03/05 08:06:39;;;;;;;4.10;3.00;;;;;;;2.05;59.56;97025.25;5038533;28;20025;-50
2023/03/05 08:09:05;;;;;;;7.60;3.20;;;;;;;2.13;59.76;97030.66;5052525;28;20036;-49
2023/03/05 08:11:31;;;;;;;5.75;3.40;;;;;;;2.29;59.76;97038.03;5052528;28;20025;-50
2023/03/05 08:13:58;;;;;;;5.40;2.83;;;;;;;2.26;59.41;97003.97;5054144;28;20379;-50
2023/03/05 08:16:24;;;;;;;6.15;2.85;;;;;;;2.59;58.58;97032.69;5052094;28;20033;-50
2023/03/05 08:18:53;;;;;;;6.45;3.75;;;;;;;2.71;58.69;97034.19;5035392;28;20047;-63
2023/03/05 08:21:22;;;;;;;7.28;3.42;;;;;;;2.78;58.83;97044.19;5041197;28;20033;-52
2023/03/05 08:23:48;;;;;;;4.55;3.47;;;;;;;2.80;58.47;97052.81;5034297;28;20034;-59
2023/03/05 08:26:15;;;;;;;5.60;3.53;;;;;;;2.81;58.58;97057.09;5034505;28;20041;-53
2023/03/05 08:28:41;;;;;;;4.18;3.45;;;;;;;2.72;58.31;97051.72;5051139;28;20036;-50
2023/03/05 08:31:11;;;;;;;5.70;3.20;;;;;;;2.81;58.70;97065.03;5053759;28;20025;-51
2023/03/05 08:33:37;;;;;;;5.85;4.07;;;;;;;2.89;58.21;97067.78;5053639;28;20480;-52
2023/03/05 08:36:03;;;;;;;3.92;3.22;;;;;;;2.93;57.40;97070.97;5053764;28;20387;-50
2023/03/05 08:38:29;;;;;;;8.27;3.63;;;;;;;2.98;58.13;97072.22;5033894;28;20127;-54
2023/03/05 08:40:54;;;;;;;5.97;3.80;;;;;;;2.98;58.17;97074.88;5033622;28;20072;-50
2023/03/05 08:43:20;;;;;;;5.97;4.38;;;;;;;2.97;57.82;97075.84;5034212;28;20029;-51
2023/03/05 08:45:46;;;;;;;6.53;3.95;;;;;;;2.96;58.80;97082.13;5033605;28;20091;-54
2023/03/05 08:48:12;;;;;;;8.27;4.32;;;;;;;2.97;59.12;97089.06;5034229;28;20048;-50
2023/03/05 08:50:38;;;;;;;7.18;4.90;;;;;;;3.04;59.18;97091.13;5033776;28;20107;-52
2023/03/05 08:53:03;;;;;;;7.72;4.45;;;;;;;3.17;58.19;97099.59;5017318;28;20464;-54
2023/03/05 08:55:29;;;;;;;7.97;5.03;;;;;;;3.32;58.40;97104.38;5033484;28;20124;-53
2023/03/05 08:57:54;;;;;;;5.07;3.67;;;;;;;3.42;56.65;97102.56;5047221;28;20048;-52
2023/03/05 09:00:20;;;;;;;4.50;3.53;;;;;;;3.51;57.30;97108.78;5052997;28;20033;-61
2023/03/05 09:02:45;;;;;;;6.00;3.33;;;;;;;3.54;56.98;97117.25;5053442;28;20117;-55
2023/03/05 09:05:11;;;;;;;5.45;3.55;;;;;;;3.53;56.35;97115.56;5053371;28;20033;-53
2023/03/05 09:07:37;;;;;;;5.13;3.65;;;;;;;3.48;57.33;97115.19;5040415;28;20072;-54
2023/03/05 09:10:04;;;;;;;6.22;3.72;;;;;;;3.50;57.00;97118.50;5032326;28;20068;-55
2023/03/05 09:12:30;;;;;;;4.38;3.00;;;;;;;3.47;56.16;97123.25;5032355;28;20076;-53
2023/03/05 09:14:56;;;;;;;7.53;3.72;;;;;;;3.47;55.91;97125.91;5033645;28;20064;-51
2023/03/05 09:17:22;;;;;;;3.83;3.38;;;;;;;3.37;56.57;97124.13;5043553;28;20447;-55
2023/03/05 09:19:47;;;;;;;5.97;3.30;;;;;;;3.27;56.26;97129.47;5050562;28;20036;-51
2023/03/05 09:22:12;;;;;;;7.50;3.63;;;;;;;3.28;56.32;97131.13;5051203;28;20033;-50
2023/03/05 09:24:38;;;;;;;4.05;3.22;;;;;;;3.28;56.16;97133.75;5051080;28;20021;-50
2023/03/05 09:27:04;;;;;;;4.20;3.40;;;;;;;2.98;55.78;97138.31;5043126;28;20032;-49
2023/03/05 09:29:30;;;;;;;5.07;3.60;;;;;;;2.82;56.68;97143.31;5050626;28;20083;-49
2023/03/05 09:31:55;;;;;;;7.32;3.83;;;;;;;2.72;56.94;97146.81;5051137;28;20207;-50
2023/03/05 09:34:22;;;;;;;5.13;3.63;;;;;;;2.71;57.98;97142.53;5051814;28;20124;-61
2023/03/05 09:36:48;;;;;;;6.20;3.78;;;;;;;2.86;57.79;97161.41;5047127;28;20033;-54
2023/03/05 09:39:15;;;;;;;4.78;3.58;;;;;;;2.91;57.73;97155.72;5032597;28;20057;-49
2023/03/05 09:42:02;;;;;;;5.72;3.67;;;;;;;2.97;58.13;97168.34;5032763;28;20047;-51
2023/03/05 09:44:42;;;;;;;7.50;4.13;;;;;;;3.00;57.45;97176.00;5033143;28;20037;-51
2023/03/05 09:47:34;;;;;;;6.47;4.10;;;;;;;3.03;57.35;97174.91;5033703;28;20041;-50
2023/03/05 09:50:06;;;;;;;8.38;3.92;;;;;;;3.14;57.87;97182.66;5032454;28;20033;-50
2023/03/05 09:52:50;;;;;;;6.25;4.50;;;;;;;3.27;56.89;97182.34;5032734;28;20076;-53
2023/03/05 09:55:39;;;;;;;8.32;4.20;;;;;;;3.66;56.69;97189.31;5033004;28;20091;-51
2023/03/05 09:58:18;;;;;;;7.30;4.00;;;;;;;3.96;54.72;97207.72;5043103;28;20036;-53
2023/03/05 10:00:48;;;;;;;5.43;3.97;;;;;;;3.86;54.69;97171.56;5032252;28;20124;-50
2023/03/05 10:03:25;;;;;;;6.85;4.43;;;;;;;4.11;53.57;97208.91;5032801;28;20092;-51
2023/03/05 10:06:02;;;;;;;6.57;4.25;;;;;;;4.16;53.13;97214.59;5033037;28;20037;-51
2023/03/05 10:08:44;;;;;;;8.85;4.80;;;;;;;4.10;53.28;97217.84;5037548;28;20037;-50
2023/03/05 10:11:33;;;;;;;5.85;4.25;;;;;;;3.99;53.21;97226.81;5050577;28;20145;-53
2023/03/05 10:13:59;;;;;;;4.53;3.67;;;;;;;3.80;52.43;97224.25;5052893;28;20032;-51
2023/03/05 10:16:53;;;;;;;7.75;4.00;;;;;;;3.73;52.25;97229.28;5052051;28;20036;-55
2023/03/05 10:19:33;;;;;;;5.97;4.55;;;;;;;3.59;53.92;97239.31;5039239;28;20129;-54
2023/03/05 10:22:22;;;;;;;5.65;4.05;;;;;;;3.61;53.91;97246.28;5032057;28;20033;-50
2023/03/05 10:25:06;;;;;;;7.60;4.63;;;;;;;3.50;53.49;97242.84;5032095;28;20409;-54
2023/03/05 10:27:38;;;;;;;7.43;4.63;;;;;;;3.48;54.89;97252.75;5032220;28;20033;-51
2023/03/05 10:30:22;;;;;;;6.68;5.10;;;;;;;3.64;54.61;97257.44;5050098;28;20037;-50
2023/03/05 10:33:12;;;;;;;7.15;5.63;;;;;;;3.70;54.64;97261.31;5052105;28;20052;-49
2023/03/05 10:36:29;;;;;;;10.02;5.88;;;;;;;3.69;54.23;97270.25;5051729;28;20048;-50
2023/03/05 10:39:00;;;;;;;9.98;6.30;;;;;;;3.58;54.03;97274.69;5030231;28;20049;-52
2023/03/05 10:41:52;;;;;;;9.10;6.13;;;;;;;3.44;55.20;97275.16;5031750;28;20107;-52
2023/03/05 10:44:26;;;;;;;8.63;5.57;;;;;;;3.32;55.10;97277.13;5031848;28;20046;-52
2023/03/05 10:46:57;;;;;;;8.00;5.82;;;;;;;3.17;55.71;97276.72;5032539;28;20051;-51
2023/03/05 10:49:27;;;;;;;9.75;6.22;;;;;;;3.01;55.50;97286.03;5047252;28;20123;-50
2023/03/05 10:52:17;;;;;;;8.80;5.88;;;;;;;3.12;56.06;97289.50;5051723;28;20040;-52
2023/03/05 10:54:42;;;;;;;8.18;6.28;;;;;;;3.00;55.33;97299.38;5051598;28;20128;-51
2023/03/05 10:57:17;;;;;;;8.85;6.00;;;;;;;2.92;55.10;97301.91;5051841;28;20124;-49
2023/03/05 11:00:05;;;;;;;11.27;5.80;;;;;;;2.82;55.64;97301.88;5032119;28;20356;-49
2023/03/05 11:02:31;;;;;;;10.25;6.05;;;;;;;2.63;55.38;97321.19;5032255;28;20048;-50
2023/03/05 11:04:57;;;;;;;7.85;6.55;;;;;;;2.35;56.08;97327.06;5032743;28;20116;-55
2023/03/05 11:07:22;;;;;;;8.52;6.32;;;;;;;2.20;56.70;97331.06;5032099;28;20105;-49
2023/03/05 11:10:03;;;;;;;11.70;7.20;;;;;;;2.23;56.95;97331.63;5050119;28;20040;-52
2023/03/05 11:12:35;;;;;;;10.98;7.05;;;;;;;2.17;57.11;97341.88;5051965;28;20372;-52
2023/03/05 11:15:12;;;;;;;11.45;7.70;;;;;;;2.04;56.65;97336.81;5051544;28;20033;-51
2023/03/05 11:17:43;;;;;;;12.82;6.85;;;;;;;1.92;57.15;97347.47;5031151;28;20041;-55
2023/03/05 11:20:32;;;;;;;8.50;6.95;;;;;;;1.91;57.70;97355.50;5052330;28;20454;-51
2023/03/05 11:23:03;;;;;;;7.93;6.35;;;;;;;1.80;57.45;97356.41;5053148;28;20033;-62
2023/03/05 11:25:30;;;;;;;10.45;6.95;;;;;;;1.77;57.81;97368.06;5055243;28;20097;-55
2023/03/05 11:27:58;;;;;;;10.60;6.60;;;;;;;1.58;57.07;97329.22;5054011;28;20418;-55
2023/03/05 11:30:28;;;;;;;8.68;6.13;;;;;;;1.83;57.43;97367.53;5055023;28;20052;-49
2023/03/05 11:33:14;;;;;;;9.23;6.13;;;;;;;1.95;57.55;97380.69;5055191;28;20048;-51
2023/03/05 11:35:41;;;;;;;10.57;5.97;;;;;;;2.04;57.01;97379.88;5054971;28;20028;-51
2023/03/05 11:38:27;;;;;;;9.02;5.75;;;;;;;2.25;57.15;97386.94;5050756;28;20116;-53
2023/03/05 11:40:55;;;;;;;6.43;5.05;;;;;;;2.29;55.27;97381.28;5037780;28;20379;-52
2023/03/05 11:43:23;;;;;;;6.72;5.68;;;;;;;2.31;54.75;97394.31;5036655;28;20044;-51
2023/03/05 11:45:53;;;;;;;10.15;6.20;;;;;;;2.25;55.48;97387.75;5032533;28;20360;-55